createdAt,value
2023-01-05T00:01:59.182Z,0.60
2023-01-05T00:04:26.307Z,0.77
2023-01-05T00:06:53.412Z,0.60
2023-01-05T00:09:20.420Z,0.60
2023-01-05T00:12:06.355Z,0.70
2023-01-05T00:14:53.178Z,0.60
2023-01-05T00:17:42.758Z,0.53
2023-01-05T00:20:40.392Z,0.60
2023-01-05T00:23:08.726Z,0.70
2023-01-05T00:25:41.351Z,0.70
2023-01-05T00:28:08.941Z,0.50
2023-01-05T00:30:44.187Z,0.60
2023-01-05T00:33:14.104Z,0.60
2023-01-05T00:35:41.647Z,0.60
2023-01-05T00:38:09.815Z,0.50
2023-01-05T00:40:37.797Z,0.50
2023-01-05T00:43:05.699Z,0.60
2023-01-05T00:45:32.886Z,0.60
2023-01-05T00:48:00.064Z,0.60
2023-01-05T00:50:27.201Z,0.53
2023-01-05T00:52:54.356Z,0.60
2023-01-05T00:55:21.328Z,0.60
2023-01-05T00:57:48.297Z,0.53
2023-01-05T01:00:19.917Z,0.50
2023-01-05T01:02:47.681Z,0.60
2023-01-05T01:05:15.096Z,0.73
2023-01-05T01:07:42.245Z,0.80
2023-01-05T01:10:11.396Z,0.60
2023-01-05T01:12:38.455Z,0.50
2023-01-05T01:15:07.559Z,0.50
2023-01-05T01:17:34.734Z,0.70
2023-01-05T01:20:01.697Z,0.53
2023-01-05T01:22:28.630Z,0.50
2023-01-05T01:24:55.627Z,0.73
2023-01-05T01:27:22.634Z,0.60
2023-01-05T01:29:49.616Z,0.60
2023-01-05T01:32:16.644Z,0.60
2023-01-05T01:37:09.424Z,0.70
2023-01-05T01:39:36.443Z,0.53
2023-01-05T01:42:03.529Z,0.60
2023-01-05T01:44:57.877Z,0.70
2023-01-05T01:47:38.032Z,0.60
2023-01-05T01:50:34.645Z,0.57
2023-01-05T01:53:08.572Z,0.70
2023-01-05T01:55:36.889Z,0.60
2023-01-05T01:58:11.439Z,0.50
2023-01-05T02:00:40.879Z,0.50
2023-01-05T02:03:09.162Z,0.60
2023-01-05T02:05:38.306Z,0.60
2023-01-05T02:08:15.574Z,0.60
2023-01-05T02:11:44.142Z,0.60
2023-01-05T02:14:44.150Z,0.80
2023-01-05T02:17:36.429Z,0.67
2023-01-05T02:21:03.714Z,0.60
2023-01-05T02:24:17.295Z,0.60
2023-01-05T02:27:29.094Z,0.77
2023-01-05T02:30:39.000Z,0.60
2023-01-05T02:33:34.943Z,0.60
2023-01-05T02:36:14.645Z,0.70
2023-01-05T02:39:10.464Z,0.50
2023-01-05T02:42:13.504Z,0.70
2023-01-05T02:44:40.431Z,0.60
2023-01-05T02:47:30.269Z,0.60
2023-01-05T02:50:10.338Z,0.60
2023-01-05T02:52:48.887Z,0.70
2023-01-05T02:55:23.290Z,0.60
2023-01-05T02:58:18.954Z,0.80
2023-01-05T03:00:56.367Z,0.60
2023-01-05T03:03:28.583Z,0.60
2023-01-05T03:06:04.864Z,0.70
2023-01-05T03:08:35.749Z,0.60
2023-01-05T03:11:24.169Z,0.60
2023-01-05T03:14:04.124Z,0.70
2023-01-05T03:16:38.118Z,0.53
2023-01-05T03:19:31.274Z,0.70
2023-01-05T03:22:22.547Z,0.70
2023-01-05T03:25:09.370Z,0.60
2023-01-05T03:27:56.742Z,0.50
2023-01-05T03:31:20.077Z,0.50
2023-01-05T03:34:23.972Z,0.50
2023-01-05T03:36:58.886Z,0.50
2023-01-05T03:39:28.134Z,0.50
2023-01-05T03:41:56.267Z,0.60
2023-01-05T03:44:23.706Z,0.60
2023-01-05T03:46:51.702Z,0.50
2023-01-05T03:49:19.060Z,0.50
2023-01-05T03:51:46.032Z,0.50
2023-01-05T03:54:12.975Z,0.53
2023-01-05T03:56:40.016Z,0.50
2023-01-05T03:59:07.035Z,0.50
2023-01-05T04:01:34.098Z,0.53
2023-01-05T04:04:01.114Z,0.60
2023-01-05T04:06:28.357Z,0.50
2023-01-05T04:08:55.374Z,0.50
2023-01-05T04:11:24.323Z,0.60
2023-01-05T04:13:51.824Z,0.50
2023-01-05T04:16:19.212Z,0.60
2023-01-05T04:18:46.285Z,0.60
2023-01-05T04:21:13.305Z,0.60
2023-01-05T04:23:40.353Z,0.47
2023-01-05T04:26:07.799Z,0.70
2023-01-05T04:28:34.844Z,0.50
2023-01-05T04:31:01.864Z,0.50
2023-01-05T04:33:28.880Z,0.60
2023-01-05T04:35:55.800Z,0.50
2023-01-05T04:38:22.816Z,0.60
2023-01-05T04:40:52.115Z,0.50
2023-01-05T04:43:20.098Z,0.50
2023-01-05T04:45:49.328Z,0.60
2023-01-05T04:48:17.294Z,0.47
2023-01-05T04:50:44.306Z,0.50
2023-01-05T04:53:11.615Z,0.60
2023-01-05T04:55:38.600Z,0.50
2023-01-05T04:58:11.518Z,0.60
2023-01-05T05:00:39.483Z,0.50
2023-01-05T05:03:07.315Z,0.50
2023-01-05T05:05:34.425Z,0.50
2023-01-05T05:08:01.531Z,1.23
2023-01-05T05:10:28.654Z,0.80
2023-01-05T05:12:55.677Z,0.50
2023-01-05T05:15:22.697Z,0.70
2023-01-05T05:17:49.733Z,0.63
2023-01-05T05:20:16.803Z,0.60
2023-01-05T05:22:43.782Z,0.60
2023-01-05T05:25:10.950Z,0.60
2023-01-05T05:27:38.047Z,0.63
2023-01-05T05:30:05.848Z,0.50
2023-01-05T05:32:32.823Z,0.50
2023-01-05T05:34:59.796Z,0.50
2023-01-05T05:37:26.755Z,0.70
2023-01-05T05:39:53.716Z,0.50
2023-01-05T05:42:20.728Z,0.50
2023-01-05T05:44:47.681Z,0.57
2023-01-05T05:47:14.774Z,0.90
2023-01-05T05:49:41.758Z,0.70
2023-01-05T05:52:08.811Z,0.60
2023-01-05T05:54:35.827Z,0.57
2023-01-05T05:57:02.766Z,0.87
2023-01-05T05:59:29.792Z,0.87
2023-01-05T06:01:56.852Z,0.50
2023-01-05T06:04:23.867Z,0.60
2023-01-05T06:06:50.823Z,0.70
2023-01-05T06:09:18.030Z,0.60
2023-01-05T06:11:45.041Z,0.60
2023-01-05T06:14:12.278Z,0.50
2023-01-05T06:16:39.238Z,0.80
2023-01-05T06:19:06.227Z,1.00
2023-01-05T06:21:33.318Z,0.80
2023-01-05T06:24:00.342Z,0.60
2023-01-05T06:26:27.339Z,0.67
2023-01-05T06:28:54.415Z,0.60
2023-01-05T06:31:21.503Z,0.70
2023-01-05T06:33:48.485Z,0.67
2023-01-05T06:36:15.442Z,0.60
2023-01-05T06:38:42.873Z,0.60
2023-01-05T06:41:09.949Z,0.63
2023-01-05T06:43:36.985Z,0.60
2023-01-05T06:46:04.538Z,0.70
2023-01-05T06:48:31.542Z,0.80
2023-01-05T06:50:58.584Z,0.70
2023-01-05T06:53:25.512Z,0.67
2023-01-05T06:55:52.489Z,0.60
2023-01-05T06:58:19.472Z,0.50
2023-01-05T07:00:46.440Z,0.50
2023-01-05T07:03:14.594Z,0.60
2023-01-05T07:05:42.117Z,0.60
2023-01-05T07:08:09.309Z,0.50
2023-01-05T07:10:36.355Z,0.70
2023-01-05T07:13:03.494Z,0.63
2023-01-05T07:15:30.493Z,0.73
2023-01-05T07:17:57.455Z,0.50
2023-01-05T07:20:24.442Z,0.60
2023-01-05T07:22:51.385Z,0.60
2023-01-05T07:25:18.794Z,0.60
2023-01-05T07:27:53.596Z,0.60
2023-01-05T07:30:20.600Z,0.60
2023-01-05T07:32:47.568Z,0.70
2023-01-05T07:35:14.740Z,0.60
2023-01-05T07:37:41.737Z,0.60
2023-01-05T07:40:10.057Z,0.60
2023-01-05T07:42:37.077Z,0.60
2023-01-05T07:45:05.371Z,0.60
2023-01-05T07:47:32.589Z,0.60
2023-01-05T07:49:59.475Z,0.60
2023-01-05T07:52:30.006Z,0.60
2023-01-05T07:54:58.685Z,0.50
2023-01-05T07:57:25.588Z,0.63
2023-01-05T07:59:52.604Z,0.60
2023-01-05T08:02:20.484Z,0.73
2023-01-05T08:04:47.998Z,0.60
2023-01-05T08:07:15.925Z,0.60
2023-01-05T08:10:01.585Z,0.73
2023-01-05T08:12:29.879Z,0.70
2023-01-05T08:14:57.193Z,0.60
2023-01-05T08:17:24.164Z,0.70
2023-01-05T08:19:51.127Z,0.80
2023-01-05T08:22:18.105Z,0.67
2023-01-05T08:24:45.201Z,0.87
2023-01-05T08:27:12.210Z,0.70
2023-01-05T08:29:39.163Z,0.80
2023-01-05T08:32:06.265Z,0.60
2023-01-05T08:34:34.983Z,0.63
2023-01-05T08:37:02.216Z,0.70
2023-01-05T08:39:29.134Z,0.60
2023-01-05T08:42:02.049Z,0.80
2023-01-05T08:44:29.652Z,0.73
2023-01-05T08:46:56.685Z,1.00
2023-01-05T08:49:25.048Z,0.60
2023-01-05T08:51:52.063Z,0.80
2023-01-05T08:54:19.032Z,0.70
2023-01-05T08:56:46.163Z,0.60
2023-01-05T08:59:14.400Z,0.87
2023-01-05T09:01:41.557Z,0.93
2023-01-05T09:04:08.712Z,0.83
2023-01-05T09:06:35.879Z,0.70
2023-01-05T09:09:03.690Z,0.70
2023-01-05T09:11:30.721Z,0.63
2023-01-05T09:13:59.984Z,0.70
2023-01-05T09:19:18.916Z,0.80
2023-01-05T09:21:47.201Z,0.70
2023-01-05T09:24:14.338Z,0.70
2023-01-05T09:26:42.974Z,0.50
2023-01-05T09:29:12.485Z,0.90
2023-01-05T09:31:42.101Z,1.10
2023-01-05T09:34:10.846Z,1.00
2023-01-05T09:36:41.153Z,1.40
2023-01-05T09:39:08.450Z,1.20
2023-01-05T09:41:55.998Z,1.00
2023-01-05T09:44:29.675Z,0.90
2023-01-05T09:47:22.486Z,0.90
2023-01-05T09:49:50.736Z,0.60
2023-01-05T09:52:22.031Z,0.70
2023-01-05T09:54:49.539Z,0.87
2023-01-05T09:57:28.671Z,0.90
2023-01-05T10:00:02.021Z,1.00
2023-01-05T10:02:38.509Z,1.00
2023-01-05T10:05:07.063Z,1.27
2023-01-05T10:07:47.887Z,0.83
2023-01-05T10:10:38.907Z,0.83
2023-01-05T10:19:16.410Z,1.00
2023-01-05T10:22:42.950Z,0.80
2023-01-05T10:25:48.003Z,0.73
2023-01-05T10:28:14.884Z,1.03
2023-01-05T10:31:03.803Z,1.07
2023-01-05T10:34:11.462Z,0.87
2023-01-05T10:37:08.333Z,1.10
2023-01-05T10:39:56.457Z,1.00
2023-01-05T10:42:35.009Z,0.90
2023-01-05T10:45:05.166Z,1.80
2023-01-05T10:47:38.053Z,1.00
2023-01-05T10:50:39.456Z,1.70
2023-01-05T10:53:24.362Z,1.23
2023-01-05T10:55:51.372Z,1.13
2023-01-05T10:58:29.400Z,1.50
2023-01-05T11:01:02.070Z,1.20
2023-01-05T11:04:30.538Z,1.00
2023-01-05T11:06:42.357Z,1.30
2023-01-05T11:09:26.494Z,1.10
2023-01-05T11:12:00.110Z,1.40
2023-01-05T11:14:35.491Z,1.57
2023-01-05T11:17:07.135Z,1.10
2023-01-05T11:19:46.347Z,1.30
2023-01-05T11:22:40.360Z,1.00
2023-01-05T11:25:42.863Z,1.53
2023-01-05T11:28:11.522Z,1.30
2023-01-05T11:31:03.513Z,1.40
2023-01-05T11:33:35.555Z,1.07
2023-01-05T11:36:05.489Z,1.30
2023-01-05T11:38:33.974Z,1.90
2023-01-05T11:41:01.717Z,1.37
2023-01-05T11:43:32.968Z,0.93
2023-01-05T11:46:05.594Z,2.10
2023-01-05T11:48:36.185Z,1.27
2023-01-05T11:51:03.896Z,1.93
2023-01-05T11:53:33.809Z,1.60
2023-01-05T11:56:23.052Z,1.43
2023-01-05T11:58:55.896Z,1.57
2023-01-05T12:01:53.060Z,1.70
2023-01-05T12:04:35.338Z,2.13
2023-01-05T12:07:18.370Z,1.37
2023-01-05T12:10:29.030Z,1.30
2023-01-05T12:13:17.563Z,1.80
2023-01-05T12:15:57.338Z,1.83
2023-01-05T12:19:25.300Z,1.53
2023-01-05T12:21:56.337Z,1.90
2023-01-05T12:24:28.501Z,2.57
2023-01-05T12:27:39.916Z,1.90
2023-01-05T12:36:50.962Z,2.03
2023-01-05T12:39:51.765Z,2.00
2023-01-05T12:42:30.321Z,1.80
2023-01-05T12:45:37.093Z,2.37
2023-01-05T12:48:10.098Z,2.00
2023-01-05T12:50:50.233Z,1.20
2023-01-05T12:53:40.629Z,2.40
2023-01-05T12:56:40.687Z,2.30
2023-01-05T12:59:14.210Z,2.43
2023-01-05T13:01:58.725Z,1.90
2023-01-05T13:04:46.727Z,2.90
2023-01-05T13:07:36.162Z,2.30
2023-01-05T13:10:08.470Z,1.87
2023-01-05T13:12:37.664Z,1.77
2023-01-05T13:15:40.093Z,1.60
2023-01-05T13:18:15.033Z,2.20
2023-01-05T13:21:08.046Z,1.80
2023-01-05T13:23:45.469Z,2.20
2023-01-05T13:26:22.208Z,2.40
2023-01-05T13:28:55.810Z,2.10
2023-01-05T13:31:59.797Z,2.00
2023-01-05T13:35:12.189Z,1.73
2023-01-05T13:38:27.818Z,3.10
2023-01-05T13:41:09.463Z,2.00
2023-01-05T13:44:35.018Z,1.90
2023-01-05T13:47:37.469Z,2.33
2023-01-05T13:50:37.377Z,2.30
2023-01-05T13:53:09.839Z,1.77
2023-01-05T13:55:54.361Z,2.97
2023-01-05T13:58:44.009Z,2.97
2023-01-05T14:01:19.775Z,1.60
2023-01-05T14:03:53.140Z,2.30
2023-01-05T14:06:44.681Z,2.90
2023-01-05T14:09:43.312Z,2.10
2023-01-05T14:12:16.292Z,1.80
2023-01-05T14:15:26.221Z,2.40
2023-01-05T14:17:53.353Z,2.07
2023-01-05T14:20:32.841Z,1.80
2023-01-05T14:23:01.693Z,1.93
2023-01-05T14:25:40.476Z,2.50
2023-01-05T14:28:36.046Z,3.53
2023-01-05T14:31:13.815Z,2.47
2023-01-05T14:34:10.306Z,2.03
2023-01-05T14:36:40.874Z,1.40
2023-01-05T14:39:20.778Z,2.20
2023-01-05T14:42:16.418Z,1.73
2023-01-05T14:44:49.870Z,1.67
2023-01-05T14:47:34.708Z,1.83
2023-01-05T14:50:04.934Z,1.50
2023-01-05T14:52:57.999Z,1.90
2023-01-05T14:55:38.460Z,1.57
2023-01-05T14:58:14.655Z,1.53
2023-01-05T15:00:45.940Z,2.00
2023-01-05T15:03:20.128Z,1.10
2023-01-05T15:06:06.296Z,1.33
2023-01-05T15:09:09.751Z,1.60
2023-01-05T15:11:39.212Z,1.37
2023-01-05T15:14:56.251Z,1.40
2023-01-05T15:17:53.845Z,1.70
2023-01-05T15:20:54.100Z,1.80
2023-01-05T15:23:54.596Z,1.40
2023-01-05T15:27:15.931Z,1.63
2023-01-05T15:30:40.672Z,1.40
2023-01-05T15:33:39.810Z,1.63
2023-01-05T15:36:41.492Z,1.60
2023-01-05T15:39:33.728Z,1.60
2023-01-05T15:42:09.119Z,1.67
2023-01-05T15:44:45.778Z,2.07
2023-01-05T15:47:13.031Z,1.63
2023-01-05T15:49:40.787Z,1.70
2023-01-05T15:52:21.253Z,2.73
2023-01-05T15:55:04.775Z,1.73
2023-01-05T15:57:31.970Z,1.50
2023-01-05T15:59:59.055Z,2.40
2023-01-05T16:02:29.395Z,1.70
2023-01-05T16:05:34.112Z,1.97
2023-01-05T16:08:08.362Z,1.90
2023-01-05T16:10:45.441Z,1.50
2023-01-05T16:13:34.743Z,1.70
2023-01-05T16:16:15.907Z,2.40
2023-01-05T16:18:54.981Z,2.30
2023-01-05T16:21:42.913Z,1.70
2023-01-05T16:24:28.921Z,2.07
2023-01-05T16:26:56.616Z,2.00
2023-01-05T16:29:45.810Z,2.57
2023-01-05T16:32:38.158Z,3.20
2023-01-05T16:35:39.933Z,2.13
2023-01-05T16:38:13.199Z,2.43
2023-01-05T16:40:46.305Z,3.00
2023-01-05T16:43:34.812Z,2.40
2023-01-05T16:46:26.346Z,2.47
2023-01-05T16:48:58.178Z,1.70
2023-01-05T16:51:35.994Z,1.93
2023-01-05T16:54:13.144Z,1.80
2023-01-05T16:57:01.677Z,2.23
2023-01-05T16:59:33.247Z,2.23
2023-01-05T17:02:01.550Z,2.00
2023-01-05T17:04:29.293Z,2.40
2023-01-05T17:06:58.093Z,2.93
2023-01-05T17:09:31.986Z,2.60
2023-01-05T17:11:59.082Z,2.30
2023-01-05T17:14:28.137Z,2.33
2023-01-05T17:16:55.472Z,1.87
2023-01-05T17:19:22.740Z,2.80
2023-01-05T17:22:04.478Z,2.47
2023-01-05T17:24:32.602Z,2.80
2023-01-05T17:27:00.027Z,2.07
2023-01-05T17:29:30.864Z,2.43
2023-01-05T17:31:57.892Z,1.93
2023-01-05T17:34:25.411Z,2.40
2023-01-05T17:36:57.042Z,2.47
2023-01-05T17:39:25.030Z,2.50
2023-01-05T17:41:52.386Z,1.63
2023-01-05T17:44:19.599Z,2.30
2023-01-05T17:46:47.984Z,2.10
2023-01-05T17:49:20.077Z,1.90
2023-01-05T17:51:47.533Z,1.50
2023-01-05T17:54:14.877Z,1.97
2023-01-05T17:56:41.825Z,2.30
2023-01-05T17:59:08.776Z,2.00
2023-01-05T18:01:35.793Z,1.70
2023-01-05T18:04:02.905Z,2.10
2023-01-05T18:06:29.829Z,2.37
2023-01-05T18:08:57.709Z,2.57
2023-01-05T18:11:24.709Z,1.83
2023-01-05T18:13:51.751Z,2.53
2023-01-05T18:16:18.921Z,2.03
2023-01-05T18:18:45.869Z,2.10
2023-01-05T18:21:12.845Z,2.17
2023-01-05T18:23:39.816Z,1.83
2023-01-05T18:26:10.114Z,2.10
2023-01-05T18:28:38.185Z,2.00
2023-01-05T18:31:16.215Z,2.80
2023-01-05T18:33:43.381Z,2.40
2023-01-05T18:36:14.281Z,2.70
2023-01-05T18:38:43.736Z,2.90
2023-01-05T18:41:11.733Z,2.50
2023-01-05T18:43:39.053Z,2.40
2023-01-05T18:46:06.417Z,2.53
2023-01-05T18:48:33.589Z,1.80
2023-01-05T18:51:00.644Z,2.03
2023-01-05T18:53:27.641Z,1.67
2023-01-05T18:55:54.598Z,2.30
2023-01-05T18:58:21.577Z,3.13
2023-01-05T19:00:48.625Z,2.00
2023-01-05T19:03:15.521Z,2.40
2023-01-05T19:05:44.270Z,2.00
2023-01-05T19:08:13.390Z,2.33
2023-01-05T19:10:41.064Z,1.50
2023-01-05T19:13:08.358Z,2.13
2023-01-05T19:15:37.412Z,2.00
2023-01-05T19:18:05.248Z,2.53
2023-01-05T19:20:32.688Z,1.60
2023-01-05T19:23:01.146Z,2.20
2023-01-05T19:25:29.942Z,1.67
2023-01-05T19:28:01.456Z,2.50
2023-01-05T19:30:29.422Z,2.53
2023-01-05T19:32:56.429Z,2.90
2023-01-05T19:35:23.925Z,2.60
2023-01-05T19:37:51.002Z,2.87
2023-01-05T19:40:18.144Z,2.47
2023-01-05T19:42:45.154Z,2.50
2023-01-05T19:45:12.197Z,3.10
2023-01-05T19:47:40.951Z,2.60
2023-01-05T19:50:11.235Z,1.90
2023-01-05T19:52:39.697Z,2.90
2023-01-05T19:55:07.620Z,2.33
2023-01-05T19:57:34.573Z,2.43
2023-01-05T20:00:01.677Z,3.70
2023-01-05T20:02:28.619Z,2.10
2023-01-05T20:04:55.672Z,2.27
2023-01-05T20:07:22.903Z,2.70
2023-01-05T20:09:51.442Z,2.03
2023-01-05T20:12:18.533Z,2.50
2023-01-05T20:14:45.657Z,1.83
2023-01-05T20:17:13.476Z,2.50
2023-01-05T20:19:41.247Z,2.40
2023-01-05T20:22:14.829Z,2.10
2023-01-05T20:24:43.430Z,2.60
2023-01-05T20:27:15.973Z,2.20
2023-01-05T20:29:43.069Z,2.07
2023-01-05T20:32:20.835Z,2.03
2023-01-05T20:34:54.361Z,2.53
2023-01-05T20:37:23.929Z,2.63
2023-01-05T20:39:51.780Z,2.60
2023-01-05T20:42:18.745Z,2.70
2023-01-05T20:44:47.942Z,2.47
2023-01-05T20:47:15.461Z,2.27
2023-01-05T20:49:45.309Z,2.27
2023-01-05T20:52:15.671Z,2.07
2023-01-05T20:54:43.216Z,2.73
2023-01-05T20:57:10.586Z,2.40
2023-01-05T20:59:39.149Z,3.33
2023-01-05T21:02:18.283Z,2.87
2023-01-05T21:04:49.844Z,2.60
2023-01-05T21:07:16.864Z,2.03
2023-01-05T21:09:43.900Z,2.73
2023-01-05T21:12:10.859Z,2.40
2023-01-05T21:14:38.158Z,2.20
2023-01-05T21:17:05.104Z,2.40
2023-01-05T21:19:32.158Z,2.23
2023-01-05T21:21:59.114Z,2.90
2023-01-05T21:24:26.922Z,2.00
2023-01-05T21:26:55.704Z,2.40
2023-01-05T21:29:26.194Z,3.10
2023-01-05T21:31:56.851Z,2.40
2023-01-05T21:34:24.715Z,2.50
2023-01-05T21:36:52.557Z,3.03
2023-01-05T21:39:24.815Z,3.00
2023-01-05T21:42:11.908Z,2.57
2023-01-05T21:44:39.990Z,2.57
2023-01-05T21:47:07.550Z,2.30
2023-01-05T21:49:36.025Z,2.60
2023-01-05T21:52:22.433Z,2.60
2023-01-05T21:55:08.420Z,2.20
2023-01-05T21:57:35.369Z,3.07
2023-01-05T22:00:02.524Z,2.40
2023-01-05T22:02:29.466Z,2.70
2023-01-05T22:04:56.439Z,2.70
2023-01-05T22:07:23.599Z,2.23
2023-01-05T22:09:50.525Z,2.90
2023-01-05T22:12:17.532Z,3.93
2023-01-05T22:14:46.149Z,2.30
2023-01-05T22:17:13.052Z,2.40
2023-01-05T22:19:39.941Z,3.87
2023-01-05T22:22:07.004Z,2.80
2023-01-05T22:24:33.956Z,3.37
2023-01-05T22:27:01.066Z,3.70
2023-01-05T22:29:28.264Z,3.20
2023-01-05T22:31:55.483Z,3.70
2023-01-05T22:34:22.688Z,3.67
2023-01-05T22:36:50.276Z,4.40
2023-01-05T22:39:17.837Z,4.50
2023-01-05T22:41:46.658Z,6.10
2023-01-05T22:44:13.850Z,8.03
2023-01-05T22:46:41.449Z,9.77
2023-01-05T22:49:14.263Z,7.53
2023-01-05T22:51:41.491Z,4.83
2023-01-05T22:54:08.664Z,3.40
2023-01-05T22:56:36.516Z,4.77
2023-01-05T22:59:04.672Z,5.40
2023-01-05T23:01:39.751Z,3.77
2023-01-05T23:04:07.618Z,3.60
2023-01-05T23:06:35.457Z,3.17
2023-01-05T23:09:06.027Z,2.97
2023-01-05T23:11:38.667Z,4.17
2023-01-05T23:14:08.372Z,3.27
2023-01-05T23:16:37.114Z,3.97
2023-01-05T23:19:06.142Z,3.20
2023-01-05T23:21:33.506Z,3.33
2023-01-05T23:24:00.565Z,3.03
2023-01-05T23:26:28.455Z,3.20
2023-01-05T23:28:56.502Z,3.00
2023-01-05T23:31:24.232Z,2.83
2023-01-05T23:33:51.897Z,3.30
2023-01-05T23:36:21.388Z,3.77
2023-01-05T23:38:48.517Z,3.73
2023-01-05T23:41:18.145Z,3.93
2023-01-05T23:43:46.451Z,2.60
2023-01-05T23:46:20.918Z,2.77
2023-01-05T23:48:49.957Z,4.73
2023-01-05T23:51:18.452Z,3.23
2023-01-05T23:53:51.382Z,3.57
2023-01-05T23:56:29.088Z,3.50
2023-01-05T23:59:08.385Z,3.57
